KPSK/PSK METAR and TAF weather

Enter ICAO airport designator
Station Type Date Time Source
KPSK METAR 2021/09/28 03:15 UTC NOAA

KPSK 280315Z AUTO 21003KT 10SM CLR 16/13 A3010 RMK AO2 T01610132


Station Type Date Time Source
KPSK Decoded METAR 2021/09/28 03:15 UTC NOAA

Dublin / New River Valley, VA, United States (KPSK) 37-08N 080-41W
Sep 27, 2021 - 11:15 PM EDT / 2021.09.28 0315 UTC
Wind: from the SSW (210 degrees) at 3 MPH (3 KT):0
Visibility: 10 mile(s):0
Sky conditions: clear
Temperature: 61.0 F (16.1 C)
Dew Point: 55.8 F (13.2 C)
Relative Humidity: 82%
Pressure (altimeter): 30.1 in. Hg (1019 hPa)
ob: KPSK 280315Z AUTO 21003KT 10SM CLR 16/13 A3010 RMK AO2 T01610132
cycle: 3

Station Type Date Time Source
KPSK TAF UTC NOAA

Error!

Example: see airport list